createdAt,value
2019-04-25T00:01:59.049Z,6.90
2019-04-25T00:04:27.735Z,6.90
2019-04-25T00:06:55.936Z,7.00
2019-04-25T00:09:25.791Z,7.00
2019-04-25T00:11:54.056Z,7.00
2019-04-25T00:14:23.556Z,7.00
2019-04-25T00:16:52.785Z,6.90
2019-04-25T00:19:21.862Z,7.00
2019-04-25T00:21:57.835Z,7.00
2019-04-25T00:24:33.427Z,7.00
2019-04-25T00:27:02.201Z,6.90
2019-04-25T00:29:31.873Z,6.80
2019-04-25T00:32:01.652Z,6.70
2019-04-25T00:34:31.670Z,6.70
2019-04-25T00:37:00.002Z,6.60
2019-04-25T00:39:28.228Z,6.50
2019-04-25T00:41:56.444Z,6.50
2019-04-25T00:44:24.643Z,6.60
2019-04-25T00:46:56.654Z,6.50
2019-04-25T00:49:23.660Z,6.40
2019-04-25T00:51:52.398Z,6.30
2019-04-25T00:54:22.702Z,6.10
2019-04-25T00:56:52.410Z,6.10
2019-04-25T00:59:25.389Z,6.00
2019-04-25T01:02:13.380Z,5.90
2019-04-25T01:04:41.957Z,5.80
2019-04-25T01:07:10.466Z,5.70
2019-04-25T01:09:38.677Z,5.70
2019-04-25T01:12:07.156Z,5.60
2019-04-25T01:14:35.388Z,5.60
2019-04-25T01:17:03.640Z,5.60
2019-04-25T01:19:31.856Z,5.70
2019-04-25T01:22:00.063Z,5.80
2019-04-25T01:24:28.272Z,5.90
2019-04-25T01:26:56.496Z,6.00
2019-04-25T01:29:24.703Z,6.00
2019-04-25T01:31:54.424Z,6.00
2019-04-25T01:34:25.817Z,6.00
2019-04-25T01:37:13.999Z,6.00
2019-04-25T01:39:44.234Z,6.00
2019-04-25T01:42:26.228Z,6.00
2019-04-25T01:44:56.863Z,6.00
2019-04-25T01:47:25.010Z,5.90
2019-04-25T01:49:54.561Z,6.00
2019-04-25T01:52:23.539Z,5.90
2019-04-25T01:54:53.122Z,5.90
2019-04-25T01:57:21.819Z,5.80
2019-04-25T01:59:50.046Z,5.80
2019-04-25T02:02:19.892Z,5.90
2019-04-25T02:05:00.904Z,6.00
2019-04-25T02:07:29.195Z,5.90
2019-04-25T02:09:57.420Z,5.80
2019-04-25T02:12:29.730Z,5.70
2019-04-25T02:14:57.955Z,5.70
2019-04-25T02:17:26.215Z,5.70
2019-04-25T02:19:55.500Z,5.70
2019-04-25T02:22:24.449Z,5.60
2019-04-25T02:24:54.345Z,5.60
2019-04-25T02:27:24.137Z,5.50
2019-04-25T02:29:53.404Z,5.40
2019-04-25T02:32:24.511Z,5.50
2019-04-25T02:34:54.084Z,5.50
2019-04-25T02:37:22.303Z,5.40
2019-04-25T02:39:50.512Z,5.20
2019-04-25T02:42:18.724Z,5.20
2019-04-25T02:44:48.585Z,5.10
2019-04-25T02:47:21.304Z,5.10
2019-04-25T02:49:55.871Z,5.00
2019-04-25T02:52:28.609Z,4.90
2019-04-25T02:54:58.439Z,4.80
2019-04-25T02:57:26.760Z,4.80
2019-04-25T02:59:56.930Z,4.70
2019-04-25T03:02:24.913Z,4.70
2019-04-25T03:04:54.545Z,4.70
2019-04-25T03:07:24.552Z,4.60
2019-04-25T03:09:54.693Z,4.60
2019-04-25T03:12:30.665Z,4.60
2019-04-25T03:14:54.958Z,4.60
2019-04-25T03:17:24.664Z,4.60
2019-04-25T03:20:01.256Z,4.50
2019-04-25T03:22:31.309Z,4.50
2019-04-25T03:25:00.277Z,4.50
2019-04-25T03:27:29.488Z,4.50
2019-04-25T03:29:57.704Z,4.50
2019-04-25T03:32:28.415Z,4.50
2019-04-25T03:34:55.858Z,4.40
2019-04-25T03:37:24.064Z,4.40
2019-04-25T03:39:53.522Z,4.40
2019-04-25T03:42:21.872Z,4.40
2019-04-25T03:44:50.072Z,4.30
2019-04-25T03:47:18.301Z,4.30
2019-04-25T03:49:46.533Z,4.30
2019-04-25T03:52:14.750Z,4.20
2019-04-25T03:54:43.424Z,4.10
2019-04-25T03:57:14.464Z,4.20
2019-04-25T03:59:43.681Z,4.20
2019-04-25T04:02:13.041Z,4.20
2019-04-25T04:04:43.412Z,4.20
2019-04-25T04:07:12.728Z,4.20
2019-04-25T04:09:43.464Z,4.20
2019-04-25T04:12:12.342Z,4.20
2019-04-25T04:14:40.738Z,4.20
2019-04-25T04:17:10.908Z,4.20
2019-04-25T04:19:45.211Z,4.20
2019-04-25T04:22:16.193Z,4.20
2019-04-25T04:24:46.100Z,4.10
2019-04-25T04:27:16.760Z,4.10
2019-04-25T04:29:44.413Z,4.10
2019-04-25T04:32:14.378Z,4.00
2019-04-25T04:34:43.524Z,4.00
2019-04-25T04:37:14.777Z,4.10
2019-04-25T04:39:43.693Z,4.10
2019-04-25T04:42:13.697Z,4.10
2019-04-25T04:44:43.676Z,4.30
2019-04-25T04:47:12.603Z,4.40
2019-04-25T04:49:41.883Z,4.40
2019-04-25T04:52:10.545Z,4.40
2019-04-25T04:54:38.891Z,4.30
2019-04-25T04:57:18.705Z,4.30
2019-04-25T04:59:37.048Z,4.40
2019-04-25T05:02:11.337Z,4.50
2019-04-25T05:04:43.857Z,4.50
2019-04-25T05:07:23.710Z,4.60
2019-04-25T05:09:53.485Z,4.80
2019-04-25T05:12:21.740Z,5.00
2019-04-25T05:14:49.984Z,5.10
2019-04-25T05:17:18.197Z,5.30
2019-04-25T05:19:46.400Z,5.30
2019-04-25T05:22:15.695Z,5.50
2019-04-25T05:24:44.293Z,5.60
2019-04-25T05:27:14.990Z,5.70
2019-04-25T05:29:43.901Z,5.90
2019-04-25T05:32:13.228Z,6.00
2019-04-25T05:34:42.064Z,6.10
2019-04-25T05:37:10.272Z,6.20
2019-04-25T05:39:38.479Z,6.30
2019-04-25T05:42:11.036Z,6.50
2019-04-25T05:44:39.248Z,6.50
2019-04-25T05:47:07.468Z,6.70
2019-04-25T05:49:35.667Z,6.70
2019-04-25T05:52:04.125Z,6.90
2019-04-25T05:54:33.961Z,6.90
2019-04-25T05:57:03.683Z,7.10
2019-04-25T05:59:33.537Z,7.30
2019-04-25T06:02:02.006Z,7.40
2019-04-25T06:04:30.256Z,7.60
2019-04-25T06:06:58.464Z,7.60
2019-04-25T06:09:28.310Z,7.80
2019-04-25T06:12:01.283Z,7.90
2019-04-25T06:14:29.489Z,8.10
2019-04-25T06:17:03.429Z,8.40
2019-04-25T06:19:39.500Z,8.60
2019-04-25T06:22:11.196Z,8.90
2019-04-25T06:24:41.084Z,9.30
2019-04-25T06:27:16.380Z,9.60
2019-04-25T06:29:57.653Z,9.90
2019-04-25T06:32:16.225Z,10.10
2019-04-25T06:34:44.527Z,10.30
2019-04-25T06:37:13.883Z,10.40
2019-04-25T06:39:44.104Z,10.60
2019-04-25T06:42:13.724Z,10.60
2019-04-25T06:44:43.877Z,10.80
2019-04-25T06:47:32.083Z,10.90
2019-04-25T06:50:00.301Z,11.20
2019-04-25T06:52:31.152Z,11.70
2019-04-25T06:54:58.516Z,12.20
2019-04-25T06:57:28.215Z,13.00
2019-04-25T06:59:56.656Z,14.00
2019-04-25T07:02:26.192Z,14.90
2019-04-25T07:04:54.893Z,15.10
2019-04-25T07:07:24.526Z,15.60
2019-04-25T07:09:53.482Z,16.10
2019-04-25T07:12:24.947Z,16.70
2019-04-25T07:14:51.864Z,16.90
2019-04-25T07:17:20.086Z,17.60
2019-04-25T07:19:48.373Z,17.40
2019-04-25T07:22:16.588Z,17.80
2019-04-25T07:24:44.817Z,17.90
2019-04-25T07:27:14.666Z,18.20
2019-04-25T07:29:47.167Z,18.30
2019-04-25T07:32:19.934Z,18.20
2019-04-25T07:34:48.237Z,18.70
2019-04-25T07:37:16.472Z,18.30
2019-04-25T07:39:44.713Z,18.60
2019-04-25T07:42:14.021Z,18.80
2019-04-25T07:44:51.651Z,18.90
2019-04-25T07:47:13.688Z,18.30
2019-04-25T07:49:43.277Z,19.20
2019-04-25T07:52:13.401Z,20.60
2019-04-25T07:54:41.530Z,19.80
2019-04-25T07:57:09.732Z,19.10
2019-04-25T07:59:38.642Z,17.90
2019-04-25T08:02:07.075Z,18.50
2019-04-25T08:04:36.966Z,19.40
2019-04-25T08:07:05.267Z,19.40
2019-04-25T08:09:35.213Z,19.80
2019-04-25T08:12:03.456Z,19.30
2019-04-25T08:14:36.040Z,19.60
2019-04-25T08:17:05.971Z,19.60
2019-04-25T08:19:34.670Z,19.50
2019-04-25T08:22:04.126Z,19.70
2019-04-25T08:24:34.608Z,20.70
2019-04-25T08:27:03.578Z,21.10
2019-04-25T08:29:31.842Z,20.70
2019-04-25T08:32:00.094Z,20.10
2019-04-25T08:34:28.292Z,20.90
2019-04-25T08:36:56.501Z,21.50
2019-04-25T08:39:24.732Z,21.30
2019-04-25T08:41:53.998Z,22.60
2019-04-25T08:44:23.994Z,21.30
2019-04-25T08:46:53.520Z,22.00
2019-04-25T08:49:26.249Z,22.10
2019-04-25T08:51:56.360Z,22.30
2019-04-25T08:54:25.527Z,23.50
2019-04-25T08:56:55.448Z,23.10
2019-04-25T08:59:44.867Z,22.50
2019-04-25T09:02:24.292Z,23.50
2019-04-25T09:05:10.593Z,23.50
2019-04-25T09:07:39.112Z,23.80
2019-04-25T09:10:07.640Z,24.40
2019-04-25T09:12:37.781Z,25.00
2019-04-25T09:15:06.295Z,24.50
2019-04-25T09:17:35.875Z,23.40
2019-04-25T09:20:05.631Z,23.00
2019-04-25T09:22:36.473Z,21.80
2019-04-25T09:25:06.270Z,20.90
2019-04-25T09:27:35.246Z,20.90
2019-04-25T09:30:05.758Z,19.90
2019-04-25T09:32:35.547Z,20.50
2019-04-25T09:35:05.080Z,19.90
2019-04-25T09:37:34.450Z,20.20
2019-04-25T09:42:59.373Z,20.40
2019-04-25T09:45:44.968Z,20.10
2019-04-25T09:48:18.611Z,20.00
2019-04-25T09:50:53.456Z,19.10
2019-04-25T09:53:23.783Z,19.20
2019-04-25T09:55:55.533Z,19.40
2019-04-25T09:58:31.646Z,19.50
2019-04-25T10:01:05.810Z,19.60
2019-04-25T10:03:34.278Z,19.80
2019-04-25T10:06:03.303Z,20.20
2019-04-25T10:08:32.292Z,20.70
2019-04-25T10:11:00.579Z,21.30
2019-04-25T10:13:29.533Z,22.10
2019-04-25T10:16:09.172Z,22.90
2019-04-25T10:18:37.893Z,23.10
2019-04-25T10:21:08.171Z,22.70
2019-04-25T10:23:37.464Z,22.60
2019-04-25T10:26:09.145Z,22.50
2019-04-25T10:28:38.727Z,22.20
2019-04-25T10:31:07.844Z,22.50
2019-04-25T10:33:36.274Z,22.90
2019-04-25T10:36:05.436Z,23.40
2019-04-25T10:38:35.161Z,23.80
2019-04-25T10:41:04.300Z,23.60
2019-04-25T10:43:34.179Z,23.10
2019-04-25T10:46:05.261Z,23.40
2019-04-25T10:48:36.161Z,23.50
2019-04-25T10:51:04.577Z,23.30
2019-04-25T10:53:33.836Z,23.80
2019-04-25T10:56:05.545Z,24.30
2019-04-25T10:58:33.799Z,24.10
2019-04-25T11:01:02.356Z,24.00
2019-04-25T11:03:34.974Z,23.70
2019-04-25T11:06:03.985Z,23.10
2019-04-25T11:08:34.002Z,23.20
2019-04-25T11:11:03.767Z,23.50
2019-04-25T11:13:33.783Z,23.80
2019-04-25T11:16:04.793Z,24.10
2019-04-25T11:18:38.437Z,23.90
2019-04-25T11:21:06.744Z,23.50
2019-04-25T11:23:35.055Z,22.60
2019-04-25T11:26:03.934Z,22.60
2019-04-25T11:28:33.759Z,22.10
2019-04-25T11:31:04.153Z,21.50
2019-04-25T11:33:33.482Z,21.40
2019-04-25T11:36:04.522Z,21.50
2019-04-25T11:38:40.867Z,22.30
2019-04-25T11:41:14.150Z,23.10
2019-04-25T11:43:45.333Z,23.60
2019-04-25T11:46:14.057Z,23.60
2019-04-25T11:48:45.060Z,23.90
2019-04-25T11:51:13.748Z,24.00
2019-04-25T11:53:41.896Z,24.40
2019-04-25T11:56:10.168Z,24.20
2019-04-25T11:58:38.377Z,24.50
2019-04-25T12:01:07.429Z,24.30
2019-04-25T12:03:35.651Z,24.20
2019-04-25T12:06:04.607Z,24.40
2019-04-25T12:08:33.567Z,24.80
2019-04-25T12:11:01.960Z,24.80
2019-04-25T12:13:30.245Z,25.10
2019-04-25T12:15:58.589Z,25.10
2019-04-25T12:18:26.860Z,24.90
2019-04-25T12:20:57.804Z,25.10
2019-04-25T12:23:25.015Z,25.00
2019-04-25T12:25:54.366Z,25.20
2019-04-25T12:28:23.587Z,25.50
2019-04-25T12:30:51.855Z,26.20
2019-04-25T12:33:21.578Z,27.00
2019-04-25T12:35:50.068Z,27.20
2019-04-25T12:38:20.368Z,26.70
2019-04-25T12:40:52.084Z,26.90
2019-04-25T12:43:23.955Z,27.60
2019-04-25T12:45:56.877Z,28.00
2019-04-25T12:48:25.108Z,27.70
2019-04-25T12:50:54.288Z,28.40
2019-04-25T12:53:23.570Z,28.50
2019-04-25T12:55:53.437Z,29.30
2019-04-25T12:58:23.508Z,29.80
2019-04-25T13:00:55.056Z,29.60
2019-04-25T13:03:21.812Z,29.60
2019-04-25T13:05:50.636Z,29.00
2019-04-25T13:08:18.904Z,28.60
2019-04-25T13:10:47.120Z,28.50
2019-04-25T13:13:16.354Z,29.10
2019-04-25T13:15:46.071Z,29.00
2019-04-25T13:18:14.476Z,28.90
2019-04-25T13:20:42.761Z,29.00
2019-04-25T13:23:11.449Z,28.70
2019-04-25T13:25:39.722Z,28.40
2019-04-25T13:28:18.665Z,28.70
2019-04-25T13:31:11.521Z,29.50
2019-04-25T13:33:54.364Z,29.60
2019-04-25T13:36:23.736Z,29.20
2019-04-25T13:38:51.944Z,27.60
2019-04-25T13:41:20.164Z,26.70
2019-04-25T13:43:48.395Z,27.20
2019-04-25T13:46:20.088Z,27.70
2019-04-25T13:48:46.546Z,27.50
2019-04-25T13:51:14.789Z,26.70
2019-04-25T13:53:43.472Z,26.50
2019-04-25T13:56:13.328Z,26.20
2019-04-25T13:58:41.720Z,26.00
2019-04-25T14:01:13.325Z,25.90
2019-04-25T14:03:41.499Z,26.10
2019-04-25T14:06:09.712Z,26.60
2019-04-25T14:08:37.941Z,26.90
2019-04-25T14:11:06.211Z,27.90
2019-04-25T14:13:34.425Z,29.10
2019-04-25T14:16:04.273Z,29.30
2019-04-25T14:18:50.358Z,28.90
2019-04-25T14:21:20.813Z,28.20
2019-04-25T14:23:49.983Z,27.90
2019-04-25T14:26:18.555Z,27.90
2019-04-25T14:28:46.773Z,27.10
2019-04-25T14:31:30.497Z,26.90
2019-04-25T14:33:46.592Z,27.10
2019-04-25T14:36:14.801Z,27.40
2019-04-25T14:38:43.029Z,27.30
2019-04-25T14:41:11.319Z,26.80
2019-04-25T14:43:39.535Z,26.00
2019-04-25T14:46:07.732Z,25.60
2019-04-25T14:48:35.964Z,25.60
2019-04-25T14:51:04.259Z,25.90
2019-04-25T14:53:34.829Z,26.50
2019-04-25T14:56:19.077Z,27.40
2019-04-25T14:58:47.618Z,28.30
2019-04-25T15:01:17.477Z,28.60
2019-04-25T15:03:45.770Z,28.60
2019-04-25T15:06:14.056Z,28.60
2019-04-25T15:08:42.259Z,28.70
2019-04-25T15:11:10.483Z,28.60
2019-04-25T15:13:38.758Z,28.20
2019-04-25T15:16:06.989Z,28.20
2019-04-25T15:18:46.137Z,28.40
2019-04-25T15:21:04.995Z,28.40
2019-04-25T15:23:33.197Z,28.40
2019-04-25T15:26:01.425Z,29.60
2019-04-25T15:28:29.826Z,29.90
2019-04-25T15:30:58.117Z,29.10
2019-04-25T15:33:26.450Z,28.80
2019-04-25T15:36:02.060Z,29.40
2019-04-25T15:38:41.344Z,29.70
2019-04-25T15:41:17.861Z,30.70
2019-04-25T15:43:47.776Z,30.90
2019-04-25T15:46:21.523Z,31.10
2019-04-25T15:48:49.814Z,30.60
2019-04-25T15:51:18.015Z,29.20
2019-04-25T15:53:46.260Z,27.80
2019-04-25T15:56:14.480Z,27.20
2019-04-25T15:58:42.712Z,27.00
2019-04-25T16:01:11.494Z,26.70
2019-04-25T16:03:39.702Z,26.50
2019-04-25T16:06:07.928Z,26.50
2019-04-25T16:08:36.135Z,26.80
2019-04-25T16:11:04.416Z,27.10
2019-04-25T16:13:32.620Z,27.30
2019-04-25T16:16:00.847Z,27.70
2019-04-25T16:18:29.064Z,27.70
2019-04-25T16:20:57.279Z,27.20
2019-04-25T16:23:25.513Z,26.50
2019-04-25T16:25:53.732Z,26.00
2019-04-25T16:28:21.963Z,25.70
2019-04-25T16:30:50.229Z,25.40
2019-04-25T16:33:18.453Z,25.30
2019-04-25T16:35:46.752Z,25.20
2019-04-25T16:38:16.259Z,25.10
2019-04-25T16:40:44.570Z,25.10
2019-04-25T16:43:14.443Z,25.10
2019-04-25T16:45:42.645Z,25.00
2019-04-25T16:48:10.865Z,25.00
2019-04-25T16:50:39.993Z,25.00
2019-04-25T16:53:08.322Z,25.00
2019-04-25T16:55:36.703Z,24.90
2019-04-25T16:58:08.081Z,24.80
2019-04-25T17:00:44.105Z,24.80
2019-04-25T17:03:13.391Z,24.70
2019-04-25T17:05:41.604Z,24.70
2019-04-25T17:08:10.411Z,24.70
2019-04-25T17:10:39.506Z,24.70
2019-04-25T17:13:08.433Z,24.70
2019-04-25T17:15:38.492Z,24.60
2019-04-25T17:18:11.247Z,24.50
2019-04-25T17:20:47.389Z,24.40
2019-04-25T17:23:15.627Z,24.20
2019-04-25T17:25:43.855Z,24.10
2019-04-25T17:28:12.456Z,23.90
2019-04-25T17:30:42.927Z,23.80
2019-04-25T17:33:24.653Z,23.60
2019-04-25T17:35:57.069Z,23.50
2019-04-25T17:38:40.389Z,23.30
2019-04-25T17:41:08.711Z,23.20
2019-04-25T17:43:37.027Z,23.00
2019-04-25T17:46:06.932Z,22.90
2019-04-25T17:48:35.982Z,22.70
2019-04-25T17:51:04.462Z,22.60
2019-04-25T17:53:33.065Z,22.40
2019-04-25T17:56:01.498Z,22.30
2019-04-25T17:58:30.076Z,22.20
2019-04-25T18:00:58.461Z,22.10
2019-04-25T18:03:27.152Z,22.10
2019-04-25T18:05:55.455Z,22.10
2019-04-25T18:08:23.869Z,22.00
2019-04-25T18:10:52.169Z,21.90
2019-04-25T18:13:23.073Z,21.80
2019-04-25T18:16:09.099Z,21.80
2019-04-25T18:18:39.193Z,21.70
2019-04-25T18:21:07.380Z,21.60
2019-04-25T18:23:37.259Z,21.60
2019-04-25T18:26:12.930Z,21.50
2019-04-25T18:28:54.484Z,21.40
2019-04-25T18:31:22.701Z,21.40
2019-04-25T18:33:52.559Z,21.30
2019-04-25T18:36:25.318Z,21.20
2019-04-25T18:39:01.216Z,21.10
2019-04-25T18:41:33.871Z,20.80
2019-04-25T18:44:03.795Z,20.40
2019-04-25T18:46:33.668Z,20.30
2019-04-25T18:49:01.872Z,20.10
2019-04-25T18:51:30.104Z,20.00
2019-04-25T18:54:17.788Z,19.80
2019-04-25T18:56:47.686Z,19.60
2019-04-25T18:59:32.864Z,19.20
2019-04-25T19:02:21.185Z,18.80
2019-04-25T19:05:03.454Z,18.50
2019-04-25T19:07:31.811Z,18.10
2019-04-25T19:10:00.035Z,17.70
2019-04-25T19:12:28.294Z,17.40
2019-04-25T19:14:56.537Z,17.20
2019-04-25T19:17:24.756Z,17.00
2019-04-25T19:19:52.969Z,16.80
2019-04-25T19:22:21.552Z,16.70
2019-04-25T19:24:49.775Z,16.50
2019-04-25T19:27:23.819Z,16.40
2019-04-25T19:29:49.051Z,16.30
2019-04-25T19:32:17.444Z,16.20
2019-04-25T19:34:46.629Z,16.10
2019-04-25T19:37:14.946Z,16.00
2019-04-25T19:39:45.211Z,16.00
2019-04-25T19:42:15.146Z,15.90
2019-04-25T19:44:43.346Z,15.80
2019-04-25T19:47:11.571Z,15.80
2019-04-25T19:49:40.622Z,15.70
2019-04-25T19:52:09.904Z,15.60
2019-04-25T19:54:38.247Z,15.50
2019-04-25T19:57:06.541Z,15.50
2019-04-25T19:59:34.765Z,15.40
2019-04-25T20:02:04.610Z,15.30
2019-04-25T20:04:46.841Z,15.20
2019-04-25T20:07:25.599Z,15.10
2019-04-25T20:10:04.721Z,15.00
2019-04-25T20:12:34.592Z,15.00
2019-04-25T20:15:02.810Z,14.80
2019-04-25T20:17:31.007Z,14.80
2019-04-25T20:19:59.225Z,14.70
2019-04-25T20:22:27.428Z,14.60
2019-04-25T20:24:55.668Z,14.50
2019-04-25T20:27:23.897Z,14.40
2019-04-25T20:29:52.668Z,14.40
2019-04-25T20:32:21.009Z,14.30
2019-04-25T20:34:49.269Z,14.30
2019-04-25T20:37:17.566Z,14.20
2019-04-25T20:39:46.012Z,14.20
2019-04-25T20:42:14.422Z,14.10
2019-04-25T20:44:42.639Z,14.00
2019-04-25T20:47:11.006Z,13.90
2019-04-25T20:49:39.297Z,13.90
2019-04-25T20:52:07.529Z,13.90
2019-04-25T20:54:35.754Z,13.90
2019-04-25T20:57:03.963Z,13.80
2019-04-25T20:59:32.272Z,13.70
2019-04-25T21:02:00.481Z,13.70
2019-04-25T21:04:41.436Z,13.60
2019-04-25T21:07:09.840Z,13.50
2019-04-25T21:09:38.054Z,13.40
2019-04-25T21:12:08.076Z,13.40
2019-04-25T21:14:37.907Z,13.30
2019-04-25T21:17:10.876Z,13.30
2019-04-25T21:19:43.693Z,13.20
2019-04-25T21:22:11.947Z,13.10
2019-04-25T21:24:40.182Z,13.00
2019-04-25T21:27:08.456Z,13.00
2019-04-25T21:29:36.743Z,12.90
2019-04-25T21:32:04.961Z,12.90
2019-04-25T21:34:33.213Z,12.80
2019-04-25T21:37:01.880Z,12.70
2019-04-25T21:39:32.162Z,12.60
2019-04-25T21:42:07.488Z,12.50
2019-04-25T21:44:36.008Z,12.50
2019-04-25T21:47:04.292Z,12.40
2019-04-25T21:49:32.921Z,12.30
2019-04-25T21:52:01.222Z,12.30
2019-04-25T21:54:29.523Z,12.20
2019-04-25T21:56:58.152Z,12.20
2019-04-25T21:59:26.629Z,12.10
2019-04-25T22:01:55.386Z,12.00
2019-04-25T22:04:24.452Z,11.90
2019-04-25T22:06:53.050Z,11.90
2019-04-25T22:09:22.823Z,11.90
2019-04-25T22:11:51.449Z,12.00
2019-04-25T22:14:20.193Z,12.00
2019-04-25T22:16:48.590Z,11.90
2019-04-25T22:19:17.199Z,11.90
2019-04-25T22:21:45.672Z,11.80
2019-04-25T22:24:15.733Z,11.70
2019-04-25T22:26:44.097Z,11.50
2019-04-25T22:29:12.343Z,11.30
2019-04-25T22:31:45.004Z,11.20
2019-04-25T22:34:17.683Z,11.10
2019-04-25T22:36:46.184Z,11.00
2019-04-25T22:39:14.465Z,11.00
2019-04-25T22:41:46.672Z,10.90
2019-04-25T22:44:18.683Z,10.80
2019-04-25T22:46:47.176Z,10.70
2019-04-25T22:49:15.390Z,10.70
2019-04-25T22:51:43.609Z,10.70
2019-04-25T22:54:12.137Z,10.60
2019-04-25T22:56:40.353Z,10.50
2019-04-25T22:59:09.123Z,10.50
2019-04-25T23:01:38.975Z,10.40
2019-04-25T23:04:18.080Z,10.30
2019-04-25T23:06:46.376Z,10.30
2019-04-25T23:09:14.599Z,10.30
2019-04-25T23:11:43.084Z,10.20
2019-04-25T23:14:11.492Z,10.20
2019-04-25T23:16:39.732Z,10.10
2019-04-25T23:19:07.940Z,10.00
2019-04-25T23:21:36.651Z,9.90
2019-04-25T23:24:05.545Z,9.80
2019-04-25T23:26:38.594Z,9.80
2019-04-25T23:29:08.446Z,9.70
2019-04-25T23:31:38.300Z,9.70
2019-04-25T23:34:07.038Z,9.60
2019-04-25T23:36:35.389Z,9.50
2019-04-25T23:39:07.238Z,9.40
2019-04-25T23:41:35.820Z,9.30
2019-04-25T23:44:05.398Z,9.30
2019-04-25T23:46:33.952Z,9.20
2019-04-25T23:49:02.633Z,9.10
2019-04-25T23:51:30.840Z,9.00
2019-04-25T23:53:59.327Z,9.00
2019-04-25T23:56:28.948Z,8.90
2019-04-25T23:58:57.454Z,9.00
